createdAt,value
2017-09-01T00:01:02.065Z,0
2017-09-01T00:02:14.455Z,0
2017-09-01T00:03:27.074Z,0
2017-09-01T00:04:39.647Z,0
2017-09-01T00:05:51.923Z,0
2017-09-01T00:07:04.508Z,0
2017-09-01T00:08:17.102Z,0
2017-09-01T00:09:29.665Z,0
2017-09-01T00:10:42.246Z,0
2017-09-01T00:11:54.838Z,0
2017-09-01T00:13:07.409Z,0
2017-09-01T00:14:19.930Z,0
2017-09-01T00:15:32.576Z,0
2017-09-01T00:16:44.564Z,0
2017-09-01T00:17:57.234Z,0
2017-09-01T00:19:09.789Z,0
2017-09-01T00:20:22.364Z,0
2017-09-01T00:21:34.971Z,0
2017-09-01T00:22:47.607Z,0
2017-09-01T00:24:00.244Z,0
2017-09-01T00:25:12.191Z,0
2017-09-01T00:26:24.783Z,0
2017-09-01T00:27:37.050Z,0
2017-09-01T00:28:49.638Z,0
2017-09-01T00:30:01.981Z,0
2017-09-01T00:31:14.244Z,0
2017-09-01T00:32:26.207Z,0
2017-09-01T00:33:38.839Z,0
2017-09-01T00:34:51.407Z,0
2017-09-01T00:36:04.000Z,0
2017-09-01T00:37:16.622Z,0
2017-09-01T00:38:29.169Z,0
2017-09-01T00:39:41.787Z,0
2017-09-01T00:40:54.412Z,0
2017-09-01T00:42:06.988Z,0
2017-09-01T00:43:19.250Z,0
2017-09-01T00:44:31.797Z,0
2017-09-01T00:45:44.374Z,0
2017-09-01T00:46:56.671Z,0
2017-09-01T00:48:09.243Z,0
2017-09-01T00:49:21.848Z,0
2017-09-01T00:50:34.049Z,0
2017-09-01T00:51:46.687Z,0
2017-09-01T00:52:59.267Z,0
2017-09-01T00:54:11.522Z,0
2017-09-01T00:55:24.109Z,0
2017-09-01T00:56:36.688Z,0
2017-09-01T00:57:49.288Z,0
2017-09-01T00:59:01.846Z,0
2017-09-01T01:00:14.407Z,0
2017-09-01T01:01:26.991Z,0
2017-09-01T01:02:39.632Z,0
2017-09-01T01:03:52.237Z,0
2017-09-01T01:05:04.833Z,0
2017-09-01T01:06:17.469Z,0
2017-09-01T01:07:29.099Z,0
2017-09-01T01:08:41.685Z,0
2017-09-01T01:09:54.241Z,0
2017-09-01T01:11:06.858Z,0
2017-09-01T01:12:19.482Z,0
2017-09-01T01:13:31.722Z,0
2017-09-01T01:14:44.012Z,0
2017-09-01T01:15:56.604Z,0
2017-09-01T01:17:08.904Z,0
2017-09-01T01:18:21.724Z,0
2017-09-01T01:19:34.326Z,0
2017-09-01T01:20:46.865Z,0
2017-09-01T01:21:59.390Z,0
2017-09-01T01:23:11.967Z,0
2017-09-01T01:24:24.621Z,0
2017-09-01T01:25:36.891Z,0
2017-09-01T01:26:49.455Z,0
2017-09-01T01:28:02.040Z,0
2017-09-01T01:29:14.635Z,0
2017-09-01T01:30:27.217Z,0
2017-09-01T01:31:39.802Z,0
2017-09-01T01:32:51.808Z,0
2017-09-01T01:34:04.410Z,0
2017-09-01T01:35:16.744Z,0
2017-09-01T01:36:29.308Z,0
2017-09-01T01:37:41.873Z,0
2017-09-01T01:38:54.411Z,0
2017-09-01T01:40:07.051Z,0
2017-09-01T01:41:19.677Z,0
2017-09-01T01:42:32.287Z,0
2017-09-01T01:43:44.914Z,0
2017-09-01T01:44:57.459Z,0
2017-09-01T01:46:09.702Z,0
2017-09-01T01:47:22.273Z,0
2017-09-01T01:48:34.583Z,0
2017-09-01T01:49:46.847Z,0
2017-09-01T01:50:59.682Z,0
2017-09-01T01:52:11.926Z,0
2017-09-01T01:53:24.475Z,0
2017-09-01T01:54:37.068Z,0
2017-09-01T01:55:49.289Z,0
2017-09-01T01:57:01.811Z,0
2017-09-01T01:58:14.107Z,0
2017-09-01T01:59:26.354Z,0
2017-09-01T02:00:38.921Z,0
2017-09-01T02:01:51.518Z,0
2017-09-01T02:03:04.074Z,0
2017-09-01T02:04:16.701Z,0
2017-09-01T02:05:28.985Z,0
2017-09-01T02:06:41.574Z,0
2017-09-01T02:07:53.826Z,0
2017-09-01T02:09:06.116Z,0
2017-09-01T02:10:18.642Z,0
2017-09-01T02:11:30.661Z,0
2017-09-01T02:12:42.931Z,0
2017-09-01T02:13:55.524Z,0
2017-09-01T02:15:08.071Z,0
2017-09-01T02:16:20.608Z,0
2017-09-01T02:17:32.878Z,0
2017-09-01T02:18:45.480Z,0
2017-09-01T02:19:57.734Z,0
2017-09-01T02:21:10.378Z,0
2017-09-01T02:22:22.960Z,0
2017-09-01T02:23:35.475Z,0
2017-09-01T02:24:47.709Z,0
2017-09-01T02:26:00.308Z,0
2017-09-01T02:27:12.865Z,0
2017-09-01T02:28:25.471Z,0
2017-09-01T02:29:37.743Z,0
2017-09-01T02:30:49.987Z,0
2017-09-01T02:32:02.589Z,0
2017-09-01T02:33:14.828Z,0
2017-09-01T02:34:27.150Z,0
2017-09-01T02:35:39.699Z,0
2017-09-01T02:36:51.992Z,0
2017-09-01T02:38:04.647Z,0
2017-09-01T02:39:16.884Z,0
2017-09-01T02:40:29.545Z,0
2017-09-01T02:41:42.153Z,0
2017-09-01T02:42:54.786Z,0
2017-09-01T02:44:07.342Z,0
2017-09-01T02:45:19.898Z,0
2017-09-01T02:46:32.554Z,0
2017-09-01T02:47:45.187Z,0
2017-09-01T02:48:57.780Z,0
2017-09-01T02:50:09.784Z,0
2017-09-01T02:51:22.404Z,0
2017-09-01T02:52:34.720Z,0
2017-09-01T02:53:47.323Z,0
2017-09-01T02:54:59.857Z,0
2017-09-01T02:56:12.463Z,0
2017-09-01T02:57:24.753Z,0
2017-09-01T02:58:37.287Z,0
2017-09-01T02:59:49.866Z,0
2017-09-01T03:01:02.506Z,0
2017-09-01T03:02:15.072Z,0
2017-09-01T03:03:27.745Z,0
2017-09-01T03:04:40.301Z,0
2017-09-01T03:05:52.685Z,0
2017-09-01T03:07:05.313Z,0
2017-09-01T03:08:17.584Z,0
2017-09-01T03:09:29.865Z,0
2017-09-01T03:10:42.149Z,0
2017-09-01T03:11:54.688Z,0
2017-09-01T03:13:06.968Z,0
2017-09-01T03:14:19.585Z,0
2017-09-01T03:15:32.176Z,0
2017-09-01T03:16:44.800Z,0
2017-09-01T03:17:57.410Z,0
2017-09-01T03:19:09.952Z,0
2017-09-01T03:20:22.595Z,0
2017-09-01T03:21:34.890Z,0
2017-09-01T03:22:47.511Z,0
2017-09-01T03:24:00.120Z,0
2017-09-01T03:25:12.679Z,0
2017-09-01T03:26:25.261Z,0
2017-09-01T03:27:37.193Z,0
2017-09-01T03:28:49.833Z,0
2017-09-01T03:30:02.400Z,0
2017-09-01T03:31:14.676Z,0
2017-09-01T03:32:27.264Z,0
2017-09-01T03:33:39.891Z,0
2017-09-01T03:34:52.437Z,0
2017-09-01T03:36:04.788Z,0
2017-09-01T03:37:17.384Z,0
2017-09-01T03:38:29.918Z,0
2017-09-01T03:39:42.695Z,0
2017-09-01T03:40:54.969Z,0
2017-09-01T03:42:07.556Z,0
2017-09-01T03:43:20.169Z,0
2017-09-01T03:44:32.794Z,0
2017-09-01T03:45:45.402Z,4
2017-09-01T03:46:57.990Z,4
2017-09-01T03:48:10.249Z,0
2017-09-01T03:49:22.815Z,4
2017-09-01T03:50:35.416Z,4
2017-09-01T03:51:47.971Z,4
2017-09-01T03:53:00.271Z,4
2017-09-01T03:54:12.523Z,8
2017-09-01T03:55:25.083Z,12
2017-09-01T03:56:37.664Z,12
2017-09-01T03:57:49.907Z,12
2017-09-01T03:59:02.475Z,12
2017-09-01T04:00:15.040Z,16
2017-09-01T04:01:27.678Z,20
2017-09-01T04:02:40.330Z,24
2017-09-01T04:03:52.955Z,28
2017-09-01T04:05:05.198Z,36
2017-09-01T04:06:17.779Z,40
2017-09-01T04:07:30.390Z,48
2017-09-01T04:08:42.991Z,52
2017-09-01T04:09:55.529Z,60
2017-09-01T04:11:08.132Z,72
2017-09-01T04:12:20.745Z,84
2017-09-01T04:13:33.022Z,92
2017-09-01T04:14:45.305Z,108
2017-09-01T04:15:57.888Z,124
2017-09-01T04:17:10.185Z,136
2017-09-01T04:18:22.701Z,156
2017-09-01T04:19:35.386Z,180
2017-09-01T04:20:47.626Z,208
2017-09-01T04:21:59.889Z,248
2017-09-01T04:23:12.470Z,292
2017-09-01T04:24:25.085Z,344
2017-09-01T04:25:37.688Z,396
2017-09-01T04:26:50.261Z,440
2017-09-01T04:28:02.821Z,484
2017-09-01T04:29:15.463Z,524
2017-09-01T04:30:28.073Z,560
2017-09-01T04:31:40.652Z,600
2017-09-01T04:32:53.238Z,648
2017-09-01T04:34:05.823Z,696
2017-09-01T04:35:17.824Z,744
2017-09-01T04:36:30.436Z,796
2017-09-01T04:37:42.961Z,852
2017-09-01T04:38:55.231Z,916
2017-09-01T04:40:07.821Z,976
2017-09-01T04:41:20.153Z,1028
2017-09-01T04:42:32.714Z,1064
2017-09-01T04:43:45.294Z,1096
2017-09-01T04:44:57.879Z,1136
2017-09-01T04:46:09.799Z,1168
2017-09-01T04:47:22.369Z,1200
2017-09-01T04:48:35.044Z,1228
2017-09-01T04:49:47.612Z,1240
2017-09-01T04:51:00.188Z,1272
2017-09-01T04:52:12.788Z,1324
2017-09-01T04:53:25.041Z,1400
2017-09-01T04:54:37.621Z,1508
2017-09-01T04:55:50.243Z,1644
2017-09-01T04:57:02.835Z,1792
2017-09-01T04:58:15.392Z,1948
2017-09-01T04:59:27.976Z,2104
2017-09-01T05:00:40.565Z,2300
2017-09-01T05:01:53.160Z,2508
2017-09-01T05:03:05.414Z,2724
2017-09-01T05:04:18.060Z,2936
2017-09-01T05:05:30.603Z,3104
2017-09-01T05:06:43.249Z,3208
2017-09-01T05:07:55.820Z,3268
2017-09-01T05:09:07.728Z,3288
2017-09-01T05:10:20.363Z,3340
2017-09-01T05:11:32.939Z,3392
2017-09-01T05:12:45.239Z,3404
2017-09-01T05:13:57.857Z,3380
2017-09-01T05:15:10.420Z,3392
2017-09-01T05:16:22.932Z,3484
2017-09-01T05:17:34.908Z,3564
2017-09-01T05:18:47.474Z,3656
2017-09-01T05:20:00.083Z,3668
2017-09-01T05:21:12.630Z,3572
2017-09-01T05:22:24.619Z,3456
2017-09-01T05:23:37.171Z,3344
2017-09-01T05:24:49.450Z,3256
2017-09-01T05:26:02.016Z,3260
2017-09-01T05:27:14.662Z,3352
2017-09-01T05:28:26.921Z,3528
2017-09-01T05:29:39.528Z,3764
2017-09-01T05:30:52.125Z,4036
2017-09-01T05:32:04.708Z,4248
2017-09-01T05:33:17.285Z,4340
2017-09-01T05:34:29.866Z,4260
2017-09-01T05:35:42.396Z,4136
2017-09-01T05:36:54.652Z,4100
2017-09-01T05:38:06.928Z,4104
2017-09-01T05:39:19.513Z,4148
2017-09-01T05:40:32.064Z,4244
2017-09-01T05:41:44.329Z,4428
2017-09-01T05:42:56.645Z,4704
2017-09-01T05:44:08.597Z,5068
2017-09-01T05:45:20.909Z,5444
2017-09-01T05:46:33.455Z,5748
2017-09-01T05:47:45.712Z,5856
2017-09-01T05:48:57.976Z,5868
2017-09-01T05:50:09.936Z,5804
2017-09-01T05:51:22.472Z,5732
2017-09-01T05:52:34.788Z,5716
2017-09-01T05:53:47.362Z,5728
2017-09-01T05:55:00.019Z,5684
2017-09-01T05:56:12.578Z,5632
2017-09-01T05:57:24.799Z,5672
2017-09-01T05:58:37.412Z,5808
2017-09-01T05:59:49.965Z,5932
2017-09-01T06:01:02.561Z,6124
2017-09-01T06:02:15.084Z,6584
2017-09-01T06:03:27.064Z,7264
2017-09-01T06:04:39.619Z,8032
2017-09-01T06:05:51.563Z,8684
2017-09-01T06:07:04.120Z,9240
2017-09-01T06:08:16.721Z,9572
2017-09-01T06:09:29.274Z,9620
2017-09-01T06:10:41.879Z,9608
2017-09-01T06:11:54.496Z,9664
2017-09-01T06:13:06.816Z,9652
2017-09-01T06:14:19.417Z,9564
2017-09-01T06:15:31.987Z,9664
2017-09-01T06:16:44.278Z,9796
2017-09-01T06:17:56.566Z,10016
2017-09-01T06:19:09.149Z,10256
2017-09-01T06:20:21.715Z,10496
2017-09-01T06:21:34.296Z,10728
2017-09-01T06:22:47.125Z,10892
2017-09-01T06:23:59.397Z,11008
2017-09-01T06:25:11.965Z,11172
2017-09-01T06:26:24.568Z,11432
2017-09-01T06:27:37.145Z,11632
2017-09-01T06:28:49.804Z,11736
2017-09-01T06:30:01.835Z,11912
2017-09-01T06:31:14.441Z,12340
2017-09-01T06:32:26.665Z,12784
2017-09-01T06:33:39.249Z,12940
2017-09-01T06:34:51.893Z,13080
2017-09-01T06:36:03.544Z,13388
2017-09-01T06:37:16.179Z,13444
2017-09-01T06:38:28.449Z,13408
2017-09-01T06:39:40.100Z,13444
2017-09-01T06:40:52.368Z,13868
2017-09-01T06:42:05.033Z,14248
2017-09-01T06:43:17.650Z,15160
2017-09-01T06:44:29.989Z,17000
2017-09-01T06:45:42.582Z,23040
2017-09-01T06:46:54.589Z,23872
2017-09-01T06:48:07.158Z,23104
2017-09-01T06:49:19.430Z,31040
2017-09-01T06:50:31.436Z,30368
2017-09-01T06:51:44.046Z,23264
2017-09-01T06:52:56.689Z,25536
2017-09-01T06:54:08.972Z,27328
2017-09-01T06:55:21.583Z,27680
2017-09-01T06:56:33.554Z,31936
2017-09-01T06:57:46.197Z,34624
2017-09-01T06:58:58.771Z,29536
2017-09-01T07:00:11.365Z,31808
2017-09-01T07:01:23.329Z,25056
2017-09-01T07:02:35.597Z,14344
2017-09-01T07:03:47.983Z,13632
2017-09-01T07:05:00.573Z,10236
2017-09-01T07:06:13.146Z,9544
2017-09-01T07:07:25.490Z,9888
2017-09-01T07:08:38.085Z,9824
2017-09-01T07:09:50.354Z,9548
2017-09-01T07:11:02.656Z,9524
2017-09-01T07:12:15.238Z,9292
2017-09-01T07:13:27.533Z,9688
2017-09-01T07:14:40.137Z,10352
2017-09-01T07:15:52.684Z,11624
2017-09-01T07:17:05.297Z,12196
2017-09-01T07:18:17.813Z,13000
2017-09-01T07:19:30.430Z,15748
2017-09-01T07:20:42.758Z,17568
2017-09-01T07:21:55.297Z,19360
2017-09-01T07:23:07.874Z,21088
2017-09-01T07:24:19.864Z,21312
2017-09-01T07:25:32.424Z,24544
2017-09-01T07:26:44.969Z,32960
2017-09-01T07:27:57.171Z,33632
2017-09-01T07:29:09.741Z,34144
2017-09-01T07:30:22.333Z,33472
2017-09-01T07:31:34.637Z,29664
2017-09-01T07:32:47.258Z,23648
2017-09-01T07:33:59.207Z,21728
2017-09-01T07:35:11.795Z,20512
2017-09-01T07:36:24.077Z,20864
2017-09-01T07:37:36.711Z,20992
2017-09-01T07:38:48.727Z,21376
2017-09-01T07:40:01.322Z,21792
2017-09-01T07:41:13.949Z,23840
2017-09-01T07:42:25.887Z,23744
2017-09-01T07:43:38.508Z,24384
2017-09-01T07:44:50.414Z,25248
2017-09-01T07:46:02.742Z,25888
2017-09-01T07:47:15.369Z,26912
2017-09-01T07:48:27.319Z,23776
2017-09-01T07:49:39.597Z,23680
2017-09-01T07:50:51.900Z,23680
2017-09-01T07:52:04.507Z,23264
2017-09-01T07:53:16.449Z,23168
2017-09-01T07:54:28.750Z,22976
2017-09-01T07:55:41.038Z,22208
2017-09-01T07:56:53.353Z,21024
2017-09-01T07:58:05.286Z,20576
2017-09-01T07:59:17.927Z,20608
2017-09-01T08:00:30.148Z,20736
2017-09-01T08:01:42.461Z,21120
2017-09-01T08:02:55.081Z,21376
2017-09-01T08:04:06.989Z,22048
2017-09-01T08:05:19.308Z,22816
2017-09-01T08:06:31.268Z,23104
2017-09-01T08:07:43.299Z,23200
2017-09-01T08:08:55.871Z,23552
2017-09-01T08:10:07.794Z,23680
2017-09-01T08:11:20.075Z,23520
2017-09-01T08:12:32.356Z,23360
2017-09-01T08:13:44.902Z,22880
2017-09-01T08:14:57.469Z,22464
2017-09-01T08:16:10.102Z,22464
2017-09-01T08:17:22.085Z,21632
2017-09-01T08:18:34.657Z,21664
2017-09-01T08:19:47.229Z,21056
2017-09-01T08:20:58.826Z,20512
2017-09-01T08:22:11.125Z,20224
2017-09-01T08:23:23.770Z,19616
2017-09-01T08:24:36.391Z,18848
2017-09-01T08:25:48.617Z,18560
2017-09-01T08:27:01.201Z,19008
2017-09-01T08:28:13.758Z,19968
2017-09-01T08:29:26.358Z,20960
2017-09-01T08:30:38.665Z,21312
2017-09-01T08:31:50.946Z,22016
2017-09-01T08:33:03.536Z,21664
2017-09-01T08:34:15.537Z,20800
2017-09-01T08:35:27.821Z,21024
2017-09-01T08:36:40.442Z,21568
2017-09-01T08:37:52.688Z,22016
2017-09-01T08:39:05.289Z,21984
2017-09-01T08:40:17.809Z,22752
2017-09-01T08:41:30.398Z,22688
2017-09-01T08:42:43.056Z,22464
2017-09-01T08:43:55.597Z,23040
2017-09-01T08:45:08.172Z,22432
2017-09-01T08:46:20.800Z,24032
2017-09-01T08:47:33.030Z,23584
2017-09-01T08:48:45.527Z,22112
2017-09-01T08:49:58.093Z,20736
2017-09-01T08:51:10.321Z,22720
2017-09-01T08:52:22.320Z,21408
2017-09-01T08:53:34.305Z,22752
2017-09-01T08:54:46.877Z,25568
2017-09-01T08:55:59.479Z,26720
2017-09-01T08:57:11.774Z,25568
2017-09-01T08:58:24.056Z,25920
2017-09-01T08:59:36.334Z,25952
2017-09-01T09:00:48.935Z,27296
2017-09-01T09:02:01.636Z,28640
2017-09-01T09:03:14.272Z,27808
2017-09-01T09:04:25.941Z,26080
2017-09-01T09:05:38.205Z,24896
2017-09-01T09:06:50.444Z,24032
2017-09-01T09:08:03.066Z,23872
2017-09-01T09:09:15.685Z,24672
2017-09-01T09:10:27.681Z,24800
2017-09-01T09:11:40.246Z,24672
2017-09-01T09:12:52.161Z,23520
2017-09-01T09:14:04.424Z,22688
2017-09-01T09:15:17.035Z,21824
2017-09-01T09:16:29.286Z,21760
2017-09-01T09:17:41.574Z,22720
2017-09-01T09:18:53.489Z,23328
2017-09-01T09:20:05.746Z,24512
2017-09-01T09:21:17.373Z,25184
2017-09-01T09:22:29.362Z,24800
2017-09-01T09:23:41.674Z,24224
2017-09-01T09:24:54.321Z,24160
2017-09-01T09:26:06.606Z,24608
2017-09-01T09:27:19.239Z,24832
2017-09-01T09:28:31.511Z,25440
2017-09-01T09:29:44.118Z,26272
2017-09-01T09:30:56.671Z,26624
2017-09-01T09:32:09.198Z,26496
2017-09-01T09:33:21.813Z,26464
2017-09-01T09:34:34.357Z,26144
2017-09-01T09:35:46.880Z,26112
2017-09-01T09:36:58.810Z,26592
2017-09-01T09:38:10.499Z,26784
2017-09-01T09:39:22.472Z,26688
2017-09-01T09:40:34.422Z,27424
2017-09-01T09:41:46.700Z,28064
2017-09-01T09:42:58.945Z,28480
2017-09-01T09:44:11.197Z,28192
2017-09-01T09:45:23.455Z,28128
2017-09-01T09:46:35.701Z,28064
2017-09-01T09:47:47.729Z,28576
2017-09-01T09:49:00.047Z,28480
2017-09-01T09:50:12.383Z,27424
2017-09-01T09:51:24.053Z,26336
2017-09-01T09:52:36.372Z,25408
2017-09-01T09:53:49.017Z,24896
2017-09-01T09:55:01.590Z,25408
2017-09-01T09:56:14.204Z,26272
2017-09-01T09:57:26.107Z,26944
2017-09-01T09:58:38.695Z,28256
2017-09-01T09:59:51.191Z,28480
2017-09-01T10:01:03.775Z,29728
2017-09-01T10:02:15.794Z,31872
2017-09-01T10:03:27.756Z,34688
2017-09-01T10:04:40.024Z,34176
2017-09-01T10:05:51.974Z,32608
2017-09-01T10:07:04.196Z,30464
2017-09-01T10:08:16.467Z,29536
2017-09-01T10:09:28.393Z,31008
2017-09-01T10:10:40.703Z,31776
2017-09-01T10:11:53.026Z,29856
2017-09-01T10:13:05.274Z,29792
2017-09-01T10:14:17.565Z,31232
2017-09-01T10:15:29.489Z,33984
2017-09-01T10:16:41.509Z,32672
2017-09-01T10:17:54.027Z,30208
2017-09-01T10:19:06.253Z,29024
2017-09-01T10:20:18.497Z,28000
2017-09-01T10:21:31.295Z,28096
2017-09-01T10:22:43.933Z,28416
2017-09-01T10:23:56.203Z,28864
2017-09-01T10:25:08.851Z,28320
2017-09-01T10:26:20.776Z,27328
2017-09-01T10:27:32.752Z,26432
2017-09-01T10:28:45.388Z,25472
2017-09-01T10:29:57.034Z,24704
2017-09-01T10:31:09.055Z,24320
2017-09-01T10:32:21.010Z,23904
2017-09-01T10:33:33.650Z,23744
2017-09-01T10:34:46.015Z,23424
2017-09-01T10:35:57.993Z,23104
2017-09-01T10:37:10.314Z,22432
2017-09-01T10:38:22.303Z,21856
2017-09-01T10:39:34.880Z,21344
2017-09-01T10:40:47.480Z,21024
2017-09-01T10:41:59.473Z,20960
2017-09-01T10:43:11.402Z,20864
2017-09-01T10:44:23.723Z,20608
2017-09-01T10:45:36.084Z,19968
2017-09-01T10:46:48.350Z,19168
2017-09-01T10:48:00.672Z,18400
2017-09-01T10:49:13.281Z,17760
2017-09-01T10:50:25.240Z,16964
2017-09-01T10:51:36.970Z,16276
2017-09-01T10:52:49.517Z,15640
2017-09-01T10:54:01.746Z,15252
2017-09-01T10:55:14.367Z,15260
2017-09-01T10:56:26.679Z,15532
2017-09-01T10:57:38.364Z,15956
2017-09-01T10:58:50.028Z,16156
2017-09-01T11:00:02.325Z,16172
2017-09-01T11:01:14.906Z,16128
2017-09-01T11:02:27.246Z,16304
2017-09-01T11:03:39.541Z,16444
2017-09-01T11:04:52.106Z,16424
2017-09-01T11:06:04.429Z,16212
2017-09-01T11:07:16.384Z,15812
2017-09-01T11:08:28.694Z,15452
2017-09-01T11:09:41.265Z,15312
2017-09-01T11:10:53.791Z,15320
2017-09-01T11:12:06.356Z,15300
2017-09-01T11:13:18.937Z,15088
2017-09-01T11:14:31.289Z,14720
2017-09-01T11:15:43.579Z,14348
2017-09-01T11:16:55.887Z,14088
2017-09-01T11:18:08.162Z,14088
2017-09-01T11:19:20.804Z,14240
2017-09-01T11:20:32.832Z,14328
2017-09-01T11:21:45.221Z,14272
2017-09-01T11:22:57.485Z,14344
2017-09-01T11:24:09.999Z,14736
2017-09-01T11:25:22.633Z,15216
2017-09-01T11:26:34.913Z,15328
2017-09-01T11:27:47.503Z,15000
2017-09-01T11:28:59.445Z,14440
2017-09-01T11:30:11.667Z,13856
2017-09-01T11:31:24.236Z,13316
2017-09-01T11:32:36.556Z,12932
2017-09-01T11:33:49.105Z,12720
2017-09-01T11:35:01.355Z,12652
2017-09-01T11:36:13.993Z,12724
2017-09-01T11:37:26.869Z,13008
2017-09-01T11:38:39.460Z,13452
2017-09-01T11:39:51.381Z,13788
2017-09-01T11:41:03.669Z,13780
2017-09-01T11:42:16.237Z,13596
2017-09-01T11:43:28.578Z,13560
2017-09-01T11:44:40.914Z,13752
2017-09-01T11:45:52.916Z,14020
2017-09-01T11:47:05.229Z,14344
2017-09-01T11:48:17.864Z,14576
2017-09-01T11:49:29.820Z,14640
2017-09-01T11:50:42.443Z,14648
2017-09-01T11:51:54.723Z,14584
2017-09-01T11:53:07.344Z,14392
2017-09-01T11:54:19.877Z,14100
2017-09-01T11:55:32.150Z,13792
2017-09-01T11:56:44.759Z,13604
2017-09-01T11:57:56.697Z,13612
2017-09-01T11:59:08.964Z,13680
2017-09-01T12:00:21.585Z,13696
2017-09-01T12:01:34.200Z,13704
2017-09-01T12:02:46.184Z,13664
2017-09-01T12:03:58.220Z,13568
2017-09-01T12:05:10.725Z,13508
2017-09-01T12:06:23.352Z,13520
2017-09-01T12:07:35.991Z,13528
2017-09-01T12:08:48.633Z,13504
2017-09-01T12:10:00.597Z,13480
2017-09-01T12:11:12.867Z,13552
2017-09-01T12:12:25.113Z,13668
2017-09-01T12:13:37.734Z,13740
2017-09-01T12:14:50.304Z,13836
2017-09-01T12:16:02.608Z,13932
2017-09-01T12:17:15.284Z,13944
2017-09-01T12:18:27.548Z,13792
2017-09-01T12:19:39.817Z,13552
2017-09-01T12:20:52.395Z,13396
2017-09-01T12:22:05.040Z,13324
2017-09-01T12:23:17.652Z,13312
2017-09-01T12:24:29.594Z,13304
2017-09-01T12:25:42.197Z,13256
2017-09-01T12:26:54.741Z,13132
2017-09-01T12:28:06.709Z,12996
2017-09-01T12:29:19.313Z,12904
2017-09-01T12:30:31.615Z,12864
2017-09-01T12:31:44.220Z,12840
2017-09-01T12:32:56.175Z,12808
2017-09-01T12:34:08.490Z,12820
2017-09-01T12:35:20.683Z,12928
2017-09-01T12:36:33.268Z,13148
2017-09-01T12:37:45.872Z,13364
2017-09-01T12:38:58.496Z,13472
2017-09-01T12:40:11.049Z,13384
2017-09-01T12:41:23.658Z,13164
2017-09-01T12:42:36.259Z,12848
2017-09-01T12:43:47.925Z,12564
2017-09-01T12:45:00.156Z,12360
2017-09-01T12:46:12.749Z,12236
2017-09-01T12:47:25.123Z,12136
2017-09-01T12:48:37.764Z,12060
2017-09-01T12:49:50.378Z,12028
2017-09-01T12:51:02.655Z,12052
2017-09-01T12:52:14.961Z,12064
2017-09-01T12:53:27.268Z,11968
2017-09-01T12:54:39.511Z,11744
2017-09-01T12:55:51.782Z,11464
2017-09-01T12:57:04.350Z,11140
2017-09-01T12:58:16.633Z,10772
2017-09-01T12:59:29.273Z,10468
2017-09-01T13:00:41.930Z,10316
2017-09-01T13:01:54.245Z,10304
2017-09-01T13:03:06.836Z,10264
2017-09-01T13:04:19.499Z,10100
2017-09-01T13:05:31.515Z,9856
2017-09-01T13:06:44.134Z,9656
2017-09-01T13:07:56.094Z,9484
2017-09-01T13:09:08.683Z,9300
2017-09-01T13:10:21.290Z,9100
2017-09-01T13:11:33.900Z,8920
2017-09-01T13:12:46.475Z,8840
2017-09-01T13:13:58.706Z,8892
2017-09-01T13:15:10.404Z,9080
2017-09-01T13:16:22.993Z,9392
2017-09-01T13:17:34.360Z,9792
2017-09-01T13:18:46.574Z,10268
2017-09-01T13:19:58.548Z,10784
2017-09-01T13:21:10.549Z,11364
2017-09-01T13:22:23.163Z,12060
2017-09-01T13:23:35.086Z,12788
2017-09-01T13:24:46.769Z,13524
2017-09-01T13:25:58.999Z,14172
2017-09-01T13:27:11.243Z,14512
2017-09-01T13:28:23.830Z,14536
2017-09-01T13:29:35.811Z,14268
2017-09-01T13:30:48.380Z,13832
2017-09-01T13:32:00.668Z,13528
2017-09-01T13:33:12.878Z,13544
2017-09-01T13:34:24.909Z,13832
2017-09-01T13:35:37.211Z,14088
2017-09-01T13:36:49.846Z,13988
2017-09-01T13:38:02.465Z,13592
2017-09-01T13:39:14.790Z,13232
2017-09-01T13:40:27.050Z,13016
2017-09-01T13:41:38.982Z,12880
2017-09-01T13:42:51.578Z,12808
2017-09-01T13:44:03.833Z,12856
2017-09-01T13:45:16.107Z,13040
2017-09-01T13:46:28.398Z,13312
2017-09-01T13:47:40.637Z,13676
2017-09-01T13:48:52.871Z,14056
2017-09-01T13:50:05.511Z,14400
2017-09-01T13:51:18.106Z,14604
2017-09-01T13:52:30.727Z,14608
2017-09-01T13:53:43.261Z,14352
2017-09-01T13:54:55.873Z,13988
2017-09-01T13:56:08.149Z,13652
2017-09-01T13:57:20.807Z,13312
2017-09-01T13:58:33.372Z,12936
2017-09-01T13:59:46.000Z,12428
2017-09-01T14:00:57.989Z,11752
2017-09-01T14:02:10.623Z,10988
2017-09-01T14:03:22.949Z,10300
2017-09-01T14:04:35.232Z,9704
2017-09-01T14:05:47.818Z,9236
2017-09-01T14:07:00.442Z,8976
2017-09-01T14:08:13.076Z,8928
2017-09-01T14:09:25.658Z,8992
2017-09-01T14:10:38.201Z,9044
2017-09-01T14:11:50.237Z,9028
2017-09-01T14:13:02.802Z,8916
2017-09-01T14:14:15.347Z,8652
2017-09-01T14:15:27.244Z,8316
2017-09-01T14:16:39.550Z,8008
2017-09-01T14:17:51.921Z,7752
2017-09-01T14:19:04.599Z,7568
2017-09-01T14:20:17.151Z,7412
2017-09-01T14:21:29.121Z,7232
2017-09-01T14:22:41.429Z,6992
2017-09-01T14:23:54.044Z,6740
2017-09-01T14:25:06.334Z,6492
2017-09-01T14:26:18.891Z,6280
2017-09-01T14:27:31.253Z,6116
2017-09-01T14:28:43.250Z,6004
2017-09-01T14:29:55.824Z,5916
2017-09-01T14:31:08.380Z,5840
2017-09-01T14:32:20.639Z,5768
2017-09-01T14:33:32.974Z,5688
2017-09-01T14:34:45.203Z,5636
2017-09-01T14:35:57.457Z,5608
2017-09-01T14:37:10.065Z,5608
2017-09-01T14:38:22.330Z,5600
2017-09-01T14:39:34.613Z,5576
2017-09-01T14:40:46.584Z,5504
2017-09-01T14:41:58.860Z,5448
2017-09-01T14:43:10.818Z,5408
2017-09-01T14:44:23.125Z,5344
2017-09-01T14:45:35.416Z,5260
2017-09-01T14:46:47.708Z,5168
2017-09-01T14:48:00.333Z,5100
2017-09-01T14:49:13.001Z,5060
2017-09-01T14:50:25.675Z,5052
2017-09-01T14:51:38.288Z,5044
2017-09-01T14:52:50.532Z,5024
2017-09-01T14:54:02.808Z,4988
2017-09-01T14:55:15.061Z,4968
2017-09-01T14:56:27.371Z,5000
2017-09-01T14:57:39.678Z,5084
2017-09-01T14:58:51.936Z,5188
2017-09-01T15:00:04.524Z,5324
2017-09-01T15:01:16.135Z,5460
2017-09-01T15:02:28.749Z,5608
2017-09-01T15:03:40.719Z,5780
2017-09-01T15:04:52.643Z,5904
2017-09-01T15:06:05.243Z,5956
2017-09-01T15:07:17.855Z,5952
2017-09-01T15:08:30.163Z,5912
2017-09-01T15:09:42.157Z,5860
2017-09-01T15:10:54.729Z,5804
2017-09-01T15:12:07.358Z,5760
2017-09-01T15:13:19.592Z,5696
2017-09-01T15:14:32.203Z,5616
2017-09-01T15:15:44.452Z,5544
2017-09-01T15:16:56.971Z,5500
2017-09-01T15:18:09.492Z,5480
2017-09-01T15:19:21.537Z,5528
2017-09-01T15:20:33.824Z,5636
2017-09-01T15:21:46.445Z,5732
2017-09-01T15:22:59.026Z,5804
2017-09-01T15:24:11.609Z,5852
2017-09-01T15:25:24.273Z,5868
2017-09-01T15:26:36.866Z,5868
2017-09-01T15:27:49.068Z,5860
2017-09-01T15:29:01.304Z,5844
2017-09-01T15:30:13.850Z,5816
2017-09-01T15:31:26.183Z,5764
2017-09-01T15:32:38.521Z,5700
2017-09-01T15:33:50.837Z,5640
2017-09-01T15:35:03.430Z,5592
2017-09-01T15:36:15.069Z,5568
2017-09-01T15:37:27.384Z,5568
2017-09-01T15:38:39.968Z,5596
2017-09-01T15:39:52.163Z,5652
2017-09-01T15:41:04.196Z,5700
2017-09-01T15:42:16.181Z,5716
2017-09-01T15:43:28.482Z,5704
2017-09-01T15:44:41.028Z,5648
2017-09-01T15:45:53.628Z,5576
2017-09-01T15:47:05.941Z,5524
2017-09-01T15:48:18.590Z,5480
2017-09-01T15:49:30.804Z,5428
2017-09-01T15:50:43.390Z,5364
2017-09-01T15:51:55.945Z,5296
2017-09-01T15:53:08.547Z,5244
2017-09-01T15:54:21.114Z,5196
2017-09-01T15:55:33.463Z,5132
2017-09-01T15:56:45.777Z,5032
2017-09-01T15:57:58.073Z,4916
2017-09-01T15:59:10.680Z,4800
2017-09-01T16:00:23.293Z,4680
2017-09-01T16:01:35.635Z,4560
2017-09-01T16:02:47.267Z,4452
2017-09-01T16:03:59.853Z,4348
2017-09-01T16:05:11.803Z,4244
2017-09-01T16:06:24.162Z,4136
2017-09-01T16:07:35.863Z,4020
2017-09-01T16:08:47.785Z,3904
2017-09-01T16:10:00.358Z,3800
2017-09-01T16:11:12.662Z,3716
2017-09-01T16:12:24.982Z,3624
2017-09-01T16:13:37.620Z,3556
2017-09-01T16:14:49.849Z,3508